Details From TNCC - Curacao Hato
To TTPP - Trinidade Piarco
Flight Number -
Tags Decoded
Created
Modified
Stats Distance 475 nm / 879 km
Max Altitude 0 ft / 0 m
Waypoints 10
Social Downloads 2
Likes 0
Share VATSIM

Download

Looking for another format? Having issues loading an existing format? Contact us
Advertisement - Login to hide

Notes

Decoded

Route

TNCC BONAX LRS TOROP KOMPU MTA CUP MEGIR POS TTPP

ID Type Via Altitude Latitude Longitude Leg Dist Tot Dist Heading (true) Name
O TNCC APT - 0 ft / 0 m 12.19211˚ -68.97514˚ - 0 nm - -
BONAX FIX - 0 ft / 0 m 12.07833˚ -67.83000˚ 67 nm 67 nm 96° / 96° -
LRS VOR - 0 ft / 0 m 11.94467˚ -66.67125˚ 68 nm 136 nm 97° / 97° GRAN ROQUE VOR-DME
TOROP FIX - 0 ft / 0 m 11.46333˚ -66.17167˚ 41 nm 177 nm 134° / 135° -
KOMPU FIX - 0 ft / 0 m 11.37833˚ -65.83000˚ 20 nm 198 nm 104° / 104° -
MTA VOR - 0 ft / 0 m 10.91769˚ -63.96317˚ 113 nm 311 nm 104° / 104° MARGARITA VOR-DME
CUP NDB - 0 ft / 0 m 10.66031˚ -63.25756˚ 44 nm 355 nm 110° / 110° CARUPANO NDB
MEGIR FIX - 0 ft / 0 m 10.51808˚ -61.87533˚ 82 nm 437 nm 96° / 96° -
POS VOR - 0 ft / 0 m 10.46639˚ -61.39236˚ 28 nm 466 nm 96° / 96° PIARCO VOR-DME
O TTPP APT - 0 ft / 0 m 10.59533˚ -61.35186˚ 8 nm 474 nm 17° / 17° -

Altitude Profile

Advertisement - Login to hide

Weather


0- 5 10 15 20 25 30 35+ Temperature / ° C

Clouds and Precipitation
Forecast for 2017-12-17 06:00 UTC. Updated an hour ago

Ground ~20,000 ft ~40,000 ft Winds

TNCC

Details ICAO TNCC (CUR)
Name Curacao Hato
Region Caribbean Netherlands, Aruba, Curaçao, Sint Maarten
Timezone Unknown (UTC+0.0)
Stats Elevation 29 ft / 9 m (AMSL)
Location 12.188853° -68.959803°
Runways 1
Magnetic Variation 11.331° W

METAR

TNCC 170400Z 09013KT 9999 FEW017 27/23 Q1014 NOSIG

Decode

TAF

Not found

Departure Runways

ID Width Length Bearing (true) Bearing (mag) Surface Threshold Offset Overrun Length
11 197 ft / 60 m 11,197 ft / 3,413 m 102.24° 113.57° Asphalt 300 ft / 91 m 0 ft / 0 m
29 197 ft / 60 m 11,197 ft / 3,413 m 282.24° 293.57° Asphalt 300 ft / 91 m 200 ft / 61 m

TTPP

Details ICAO TTPP (POS)
Name Trinidad/Piarco Intl
Region Trinidad and Tobago
Timezone America/Port_of_Spain (UTC-4.0)
Stats Elevation 57 ft / 17 m (AMSL)
Location 10.595370° -61.337239°
Runways 1
Magnetic Variation 15.001° W

METAR

TTPP 170400Z 00000KT 9999 FEW016 24/20 Q1013 NOSIG

Decode

TAF

Not found

Destination Runways

ID Width Length Bearing (true) Bearing (mag) Surface Threshold Offset Overrun Length
10 151 ft / 46 m 10,486 ft / 3,196 m 89.83° 104.83° Asphalt 0 ft / 0 m 79 ft / 24 m
28 151 ft / 46 m 10,486 ft / 3,196 m 269.84° 284.84° Asphalt 0 ft / 0 m 184 ft / 56 m

Approach Navaids

Runway Type Ident Frequency Range Bearing (true) Bearing (mag) Slope Elevation
10 Localiser IPOS 109.70 MHz 18 nm / 33 km 89.49° 104.49° - 57 ft / 17 m (AMSL)
10 Glidescope IPOS 109.70 MHz 10 nm / 19 km 89.83° 104.84° 3.00° 57 ft / 17 m (AMSL)
10 DME IPOS 109.70 MHz 18 nm / 33 km - - - 57 ft / 17 m (AMSL)

Popular Alternatives